Palermo, ND (58769)

2:48 PM CDT on July 23, 2014 (GMT -0500)
Stanley (K08D) Elev 2244 ft | 48.30 °N, 102.41 °W | Change Station

Current weather conditions updated 13 minutes ago

Clear
Clear
77 °F
Feels Like 77 °F
N
13
Wind Variable Wind from SE

Today is forecast to be nearly the same temperature as yesterday. A few showers developing late tonight.

Today
High -- | Low -- °F
--% Chance of Precip.
Yesterday
High -- | Low -- °F
Precip. -- in
6:12 AM 9:37 PM
Waning Crescent, 9% visible
Pressure 30.22 in
Visibility 10.0 miles
Clouds Scattered Clouds 2600 ft
Dew Point 68 °F
Humidity 74%
Rainfall 0.03 in
Snow Depth Not available.
UV 8 out of 12
Pollen 6.50 out of 12
Air Quality Not available.
Flu Activity Not available.
METAR K08D 231935Z AUTO 13011KT 10SM SCT026 25/20 A3022 RMK AO2

More Conditions Fewer Conditions

Pressure 30.22 in
Visibility 10.0 miles
Clouds Scattered Clouds 2600 ft
Dew Point 68 °F
Humidity 74%
Rainfall 0.03 in
Snow Depth Not available.
UV 8 out of 12
Pollen 6.50 out of 12
Air Quality Not available.
Flu Activity Not available.
METAR K08D 231935Z AUTO 13011KT 10SM SCT026 25/20 A3022 RMK AO2

More Conditions Fewer Conditions

10-Day Weather Forecast

Almanac

Astronomy

Jul. 23, 2014 Rise Set
Actual Time 6:12 AM CDT 9:37 PM CDT
Civil Twilight 5:34 AM CDT 10:15 PM CDT
Nautical Twilight 4:43 AM CDT 11:06 PM CDT
Astronomical Twilight 3:36 AM CDT 12:12 AM CDT
Moon 3:35 AM CDT 7:05 PM CDT
Length of Visible Light 16h 41m
Length of Day
15h 24m
Tomorrow will be 2m 23s shorter.
Waning Crescent, 9% of the Moon is Illuminated
Today
Waning Crescent
Jul 26
New
Aug 3
First Quarter
Aug 10
Full
Aug 17
Last Quarter

Today's Extremes

State Highs State Lows

Community

WunderPhotos

Upload Photos

1,736,734 photos uploaded!

Nearby

Snow Depth

Station Depth Elevation
No new snow has been reported.

Earthquake Activity

City Distance Mag. Time & Date
No recent earthquake activity has been reported nearby.
Minimum magnitude displayed is 2.5.

Coastal Water Temperatures

Place Temperature
No Stations Reporting

Nearby Weather Stations

Station Location Temp. Heat Index Dew Point Humidity Wind Precip. Elev Updated Type
RAWS LOSTWOOD ND, Powers Lake, ND 74 °F 75 °F 66 °F 76% ESE  at  16 mph 0.00 in / hr 2270 ft 1:57 PM CDT MADIS

Show More Stations Show Fewer Stations